sensor_id;sensor_type;location;lat;lon;timestamp;temperature;humidity
5711;DHT22;61291;52.524;13.422;2024-02-15T00:01:21;10.30;99.90
5711;DHT22;61291;52.524;13.422;2024-02-15T00:03:46;10.30;99.90
5711;DHT22;61291;52.524;13.422;2024-02-15T00:06:12;10.30;99.90
5711;DHT22;61291;52.524;13.422;2024-02-15T00:08:37;10.30;99.90
5711;DHT22;61291;52.524;13.422;2024-02-15T00:11:03;10.30;99.90
5711;DHT22;61291;52.524;13.422;2024-02-15T00:13:28;10.40;99.90
5711;DHT22;61291;52.524;13.422;2024-02-15T00:15:55;10.40;99.90
5711;DHT22;61291;52.524;13.422;2024-02-15T00:18:21;10.40;99.90
5711;DHT22;61291;52.524;13.422;2024-02-15T00:20:46;10.40;99.90
5711;DHT22;61291;52.524;13.422;2024-02-15T00:23:12;10.40;99.90
5711;DHT22;61291;52.524;13.422;2024-02-15T00:25:37;10.40;99.90
5711;DHT22;61291;52.524;13.422;2024-02-15T00:28:03;10.40;99.90
5711;DHT22;61291;52.524;13.422;2024-02-15T00:30:28;10.50;99.90
5711;DHT22;61291;52.524;13.422;2024-02-15T00:32:54;10.50;99.90
5711;DHT22;61291;52.524;13.422;2024-02-15T00:35:20;10.50;99.90
5711;DHT22;61291;52.524;13.422;2024-02-15T00:37:46;10.50;99.90
5711;DHT22;61291;52.524;13.422;2024-02-15T00:40:11;10.50;99.90
5711;DHT22;61291;52.524;13.422;2024-02-15T00:42:37;10.50;99.90
5711;DHT22;61291;52.524;13.422;2024-02-15T00:45:04;10.60;99.90
5711;DHT22;61291;52.524;13.422;2024-02-15T00:47:30;10.60;99.90
5711;DHT22;61291;52.524;13.422;2024-02-15T00:49:55;10.60;99.90
5711;DHT22;61291;52.524;13.422;2024-02-15T00:52:21;10.60;99.90
5711;DHT22;61291;52.524;13.422;2024-02-15T00:54:47;10.60;99.90
5711;DHT22;61291;52.524;13.422;2024-02-15T00:57:12;10.70;99.90
5711;DHT22;61291;52.524;13.422;2024-02-15T00:59:38;10.60;99.90
5711;DHT22;61291;52.524;13.422;2024-02-15T01:02:03;10.60;99.90
5711;DHT22;61291;52.524;13.422;2024-02-15T01:04:30;10.60;99.90
5711;DHT22;61291;52.524;13.422;2024-02-15T01:06:56;10.60;99.90
5711;DHT22;61291;52.524;13.422;2024-02-15T01:09:22;10.60;99.90
5711;DHT22;61291;52.524;13.422;2024-02-15T01:11:47;10.60;99.90
5711;DHT22;61291;52.524;13.422;2024-02-15T01:14:13;10.60;99.90
5711;DHT22;61291;52.524;13.422;2024-02-15T01:16:41;10.50;99.90
5711;DHT22;61291;52.524;13.422;2024-02-15T01:19:06;10.50;99.90
5711;DHT22;61291;52.524;13.422;2024-02-15T01:21:32;10.60;99.90
5711;DHT22;61291;52.524;13.422;2024-02-15T01:24:00;10.60;99.90
5711;DHT22;61291;52.524;13.422;2024-02-15T01:26:26;10.60;99.90
5711;DHT22;61291;52.524;13.422;2024-02-15T01:28:52;10.60;99.90
5711;DHT22;61291;52.524;13.422;2024-02-15T01:31:18;10.60;99.90
5711;DHT22;61291;52.524;13.422;2024-02-15T01:33:44;10.60;99.90
5711;DHT22;61291;52.524;13.422;2024-02-15T01:36:14;10.60;99.90
5711;DHT22;61291;52.524;13.422;2024-02-15T01:38:41;10.70;99.90
5711;DHT22;61291;52.524;13.422;2024-02-15T01:41:07;10.70;99.90
5711;DHT22;61291;52.524;13.422;2024-02-15T01:43:33;10.70;99.90
5711;DHT22;61291;52.524;13.422;2024-02-15T01:45:59;10.70;99.90
5711;DHT22;61291;52.524;13.422;2024-02-15T01:48:29;10.70;99.90
5711;DHT22;61291;52.524;13.422;2024-02-15T01:50:55;10.70;99.90
5711;DHT22;61291;52.524;13.422;2024-02-15T01:53:21;10.70;99.90
5711;DHT22;61291;52.524;13.422;2024-02-15T01:55:46;10.70;99.90
5711;DHT22;61291;52.524;13.422;2024-02-15T01:58:12;10.60;99.90
5711;DHT22;61291;52.524;13.422;2024-02-15T02:00:38;10.60;99.90
5711;DHT22;61291;52.524;13.422;2024-02-15T02:03:05;10.60;99.90
5711;DHT22;61291;52.524;13.422;2024-02-15T02:05:31;10.70;99.90
5711;DHT22;61291;52.524;13.422;2024-02-15T02:07:57;10.70;99.90
5711;DHT22;61291;52.524;13.422;2024-02-15T02:10:27;10.60;99.90
5711;DHT22;61291;52.524;13.422;2024-02-15T02:12:52;10.60;99.90
5711;DHT22;61291;52.524;13.422;2024-02-15T02:15:18;10.60;99.90
5711;DHT22;61291;52.524;13.422;2024-02-15T02:17:49;10.60;99.90
5711;DHT22;61291;52.524;13.422;2024-02-15T02:20:16;10.60;99.90
5711;DHT22;61291;52.524;13.422;2024-02-15T02:22:44;10.60;99.90
5711;DHT22;61291;52.524;13.422;2024-02-15T02:25:12;10.60;99.90
5711;DHT22;61291;52.524;13.422;2024-02-15T02:27:38;10.60;99.90
5711;DHT22;61291;52.524;13.422;2024-02-15T02:30:22;10.60;99.90
5711;DHT22;61291;52.524;13.422;2024-02-15T02:32:48;10.60;99.90
5711;DHT22;61291;52.524;13.422;2024-02-15T02:35:14;10.60;99.90
5711;DHT22;61291;52.524;13.422;2024-02-15T02:37:41;10.60;99.90
5711;DHT22;61291;52.524;13.422;2024-02-15T02:40:08;10.70;99.90
5711;DHT22;61291;52.524;13.422;2024-02-15T02:42:52;10.60;99.90
5711;DHT22;61291;52.524;13.422;2024-02-15T02:45:18;10.60;99.90
5711;DHT22;61291;52.524;13.422;2024-02-15T02:47:51;10.60;99.90
5711;DHT22;61291;52.524;13.422;2024-02-15T02:50:17;10.60;99.90
5711;DHT22;61291;52.524;13.422;2024-02-15T02:52:43;10.70;99.90
5711;DHT22;61291;52.524;13.422;2024-02-15T02:55:09;10.70;99.90
5711;DHT22;61291;52.524;13.422;2024-02-15T02:57:35;10.70;99.90
5711;DHT22;61291;52.524;13.422;2024-02-15T03:00:06;10.70;99.90
5711;DHT22;61291;52.524;13.422;2024-02-15T03:02:36;10.70;99.90
5711;DHT22;61291;52.524;13.422;2024-02-15T03:05:03;10.80;99.90
5711;DHT22;61291;52.524;13.422;2024-02-15T03:07:31;10.70;99.90
5711;DHT22;61291;52.524;13.422;2024-02-15T03:09:57;10.70;99.90
5711;DHT22;61291;52.524;13.422;2024-02-15T03:12:23;10.70;99.90
5711;DHT22;61291;52.524;13.422;2024-02-15T03:14:48;10.80;99.90
5711;DHT22;61291;52.524;13.422;2024-02-15T03:17:14;10.70;99.90
5711;DHT22;61291;52.524;13.422;2024-02-15T03:19:39;10.80;99.90
5711;DHT22;61291;52.524;13.422;2024-02-15T03:22:06;10.80;99.90
5711;DHT22;61291;52.524;13.422;2024-02-15T03:24:31;10.80;99.90
5711;DHT22;61291;52.524;13.422;2024-02-15T03:26:57;10.80;99.90
5711;DHT22;61291;52.524;13.422;2024-02-15T03:29:22;10.80;99.90
5711;DHT22;61291;52.524;13.422;2024-02-15T03:31:48;10.80;99.90
5711;DHT22;61291;52.524;13.422;2024-02-15T03:34:14;10.80;99.90
5711;DHT22;61291;52.524;13.422;2024-02-15T03:36:41;10.70;99.90
5711;DHT22;61291;52.524;13.422;2024-02-15T03:39:06;10.80;99.90
5711;DHT22;61291;52.524;13.422;2024-02-15T03:41:33;10.80;99.90
5711;DHT22;61291;52.524;13.422;2024-02-15T03:43:59;10.80;99.90
5711;DHT22;61291;52.524;13.422;2024-02-15T03:46:25;10.70;99.90
5711;DHT22;61291;52.524;13.422;2024-02-15T03:48:51;10.80;99.90
5711;DHT22;61291;52.524;13.422;2024-02-15T03:51:17;10.80;99.90
5711;DHT22;61291;52.524;13.422;2024-02-15T03:53:46;10.70;99.90
5711;DHT22;61291;52.524;13.422;2024-02-15T03:56:13;10.70;99.90
5711;DHT22;61291;52.524;13.422;2024-02-15T03:58:38;10.80;99.90
5711;DHT22;61291;52.524;13.422;2024-02-15T04:01:04;10.80;99.90
5711;DHT22;61291;52.524;13.422;2024-02-15T04:03:35;10.90;99.90
5711;DHT22;61291;52.524;13.422;2024-02-15T04:06:01;10.90;99.90
5711;DHT22;61291;52.524;13.422;2024-02-15T04:08:26;10.90;99.90
5711;DHT22;61291;52.524;13.422;2024-02-15T04:10:52;10.90;99.90
5711;DHT22;61291;52.524;13.422;2024-02-15T04:13:18;10.80;99.90
5711;DHT22;61291;52.524;13.422;2024-02-15T04:15:44;10.90;99.90
5711;DHT22;61291;52.524;13.422;2024-02-15T04:18:12;10.90;99.90
5711;DHT22;61291;52.524;13.422;2024-02-15T04:20:39;10.90;99.90
5711;DHT22;61291;52.524;13.422;2024-02-15T04:23:10;10.90;99.90
5711;DHT22;61291;52.524;13.422;2024-02-15T04:25:36;10.90;99.90
5711;DHT22;61291;52.524;13.422;2024-02-15T04:28:01;10.90;99.90
5711;DHT22;61291;52.524;13.422;2024-02-15T04:30:32;10.90;99.90
5711;DHT22;61291;52.524;13.422;2024-02-15T04:32:57;11.00;99.90
5711;DHT22;61291;52.524;13.422;2024-02-15T04:35:23;10.90;99.90
5711;DHT22;61291;52.524;13.422;2024-02-15T04:37:52;10.80;99.90
5711;DHT22;61291;52.524;13.422;2024-02-15T04:40:18;10.90;99.90
5711;DHT22;61291;52.524;13.422;2024-02-15T04:42:44;10.90;99.90
5711;DHT22;61291;52.524;13.422;2024-02-15T04:45:12;10.90;99.90
5711;DHT22;61291;52.524;13.422;2024-02-15T04:47:43;10.90;99.90
5711;DHT22;61291;52.524;13.422;2024-02-15T04:50:10;11.00;99.90
5711;DHT22;61291;52.524;13.422;2024-02-15T04:52:36;11.00;99.90
5711;DHT22;61291;52.524;13.422;2024-02-15T04:55:02;10.90;99.90
5711;DHT22;61291;52.524;13.422;2024-02-15T04:57:30;10.90;99.90
5711;DHT22;61291;52.524;13.422;2024-02-15T04:59:56;10.90;99.90
5711;DHT22;61291;52.524;13.422;2024-02-15T05:02:21;11.00;99.90
5711;DHT22;61291;52.524;13.422;2024-02-15T05:04:49;10.90;99.90
5711;DHT22;61291;52.524;13.422;2024-02-15T05:07:20;11.00;99.90
5711;DHT22;61291;52.524;13.422;2024-02-15T05:09:50;11.00;99.90
5711;DHT22;61291;52.524;13.422;2024-02-15T05:12:23;11.00;99.90
5711;DHT22;61291;52.524;13.422;2024-02-15T05:14:53;11.00;99.90
5711;DHT22;61291;52.524;13.422;2024-02-15T05:17:18;11.00;99.90
5711;DHT22;61291;52.524;13.422;2024-02-15T05:19:44;11.00;99.90
5711;DHT22;61291;52.524;13.422;2024-02-15T05:22:10;11.00;99.90
5711;DHT22;61291;52.524;13.422;2024-02-15T05:24:36;11.00;99.90
5711;DHT22;61291;52.524;13.422;2024-02-15T05:27:04;11.00;99.90
5711;DHT22;61291;52.524;13.422;2024-02-15T05:29:29;11.00;99.90
5711;DHT22;61291;52.524;13.422;2024-02-15T05:31:59;11.00;99.90
5711;DHT22;61291;52.524;13.422;2024-02-15T05:34:25;11.00;99.90
5711;DHT22;61291;52.524;13.422;2024-02-15T05:36:50;11.00;99.90
5711;DHT22;61291;52.524;13.422;2024-02-15T05:39:17;11.00;99.90
5711;DHT22;61291;52.524;13.422;2024-02-15T05:41:45;11.00;99.90
5711;DHT22;61291;52.524;13.422;2024-02-15T05:44:11;11.00;99.90
5711;DHT22;61291;52.524;13.422;2024-02-15T05:46:36;11.00;99.90
5711;DHT22;61291;52.524;13.422;2024-02-15T05:49:05;11.00;99.90
5711;DHT22;61291;52.524;13.422;2024-02-15T05:51:31;11.00;99.90
5711;DHT22;61291;52.524;13.422;2024-02-15T05:53:57;11.00;99.90
5711;DHT22;61291;52.524;13.422;2024-02-15T05:56:26;11.00;99.90
5711;DHT22;61291;52.524;13.422;2024-02-15T05:58:52;11.00;99.90
5711;DHT22;61291;52.524;13.422;2024-02-15T06:01:17;11.10;99.90
5711;DHT22;61291;52.524;13.422;2024-02-15T06:03:43;11.10;99.90
5711;DHT22;61291;52.524;13.422;2024-02-15T06:06:10;11.10;99.90
5711;DHT22;61291;52.524;13.422;2024-02-15T06:08:37;11.10;99.90
5711;DHT22;61291;52.524;13.422;2024-02-15T06:11:03;11.10;99.90
5711;DHT22;61291;52.524;13.422;2024-02-15T06:13:31;11.10;99.90
5711;DHT22;61291;52.524;13.422;2024-02-15T06:15:56;11.10;99.90
5711;DHT22;61291;52.524;13.422;2024-02-15T06:18:28;11.10;99.90
5711;DHT22;61291;52.524;13.422;2024-02-15T06:20:55;11.10;99.90
5711;DHT22;61291;52.524;13.422;2024-02-15T06:23:22;11.20;99.90
5711;DHT22;61291;52.524;13.422;2024-02-15T06:25:51;11.10;99.90
5711;DHT22;61291;52.524;13.422;2024-02-15T06:28:16;11.10;99.90
5711;DHT22;61291;52.524;13.422;2024-02-15T06:31:06;11.10;99.90
5711;DHT22;61291;52.524;13.422;2024-02-15T06:33:50;11.20;99.90
5711;DHT22;61291;52.524;13.422;2024-02-15T06:36:34;11.10;99.90
5711;DHT22;61291;52.524;13.422;2024-02-15T06:39:22;11.20;99.90
5711;DHT22;61291;52.524;13.422;2024-02-15T06:42:04;11.20;99.90
5711;DHT22;61291;52.524;13.422;2024-02-15T06:44:29;11.20;99.90
5711;DHT22;61291;52.524;13.422;2024-02-15T06:46:55;11.30;99.90
5711;DHT22;61291;52.524;13.422;2024-02-15T06:49:22;11.30;99.90
5711;DHT22;61291;52.524;13.422;2024-02-15T06:51:48;11.30;99.90
5711;DHT22;61291;52.524;13.422;2024-02-15T06:54:14;11.30;99.90
5711;DHT22;61291;52.524;13.422;2024-02-15T06:56:39;11.30;99.90
5711;DHT22;61291;52.524;13.422;2024-02-15T06:59:09;11.40;99.90
5711;DHT22;61291;52.524;13.422;2024-02-15T07:01:35;11.40;99.90
5711;DHT22;61291;52.524;13.422;2024-02-15T07:04:01;11.50;99.90
5711;DHT22;61291;52.524;13.422;2024-02-15T07:06:28;11.50;99.90
5711;DHT22;61291;52.524;13.422;2024-02-15T07:08:54;11.60;99.90
5711;DHT22;61291;52.524;13.422;2024-02-15T07:11:22;11.60;99.90
5711;DHT22;61291;52.524;13.422;2024-02-15T07:13:48;11.60;99.90
5711;DHT22;61291;52.524;13.422;2024-02-15T07:16:13;11.70;99.90
5711;DHT22;61291;52.524;13.422;2024-02-15T07:18:40;11.70;99.90
5711;DHT22;61291;52.524;13.422;2024-02-15T07:21:06;11.80;99.90
5711;DHT22;61291;52.524;13.422;2024-02-15T07:23:36;11.80;99.90
5711;DHT22;61291;52.524;13.422;2024-02-15T07:26:02;11.90;99.90
5711;DHT22;61291;52.524;13.422;2024-02-15T07:28:29;11.90;99.90
5711;DHT22;61291;52.524;13.422;2024-02-15T07:30:56;12.00;99.90
5711;DHT22;61291;52.524;13.422;2024-02-15T07:33:22;12.10;99.90
5711;DHT22;61291;52.524;13.422;2024-02-15T07:35:48;12.20;99.90
5711;DHT22;61291;52.524;13.422;2024-02-15T07:38:17;12.20;99.90
5711;DHT22;61291;52.524;13.422;2024-02-15T07:40:43;12.20;99.90
5711;DHT22;61291;52.524;13.422;2024-02-15T07:43:09;12.20;99.90
5711;DHT22;61291;52.524;13.422;2024-02-15T07:45:35;12.20;99.90
5711;DHT22;61291;52.524;13.422;2024-02-15T07:48:03;12.30;99.90
5711;DHT22;61291;52.524;13.422;2024-02-15T07:50:30;12.40;99.90
5711;DHT22;61291;52.524;13.422;2024-02-15T07:52:56;12.60;99.90
5711;DHT22;61291;52.524;13.422;2024-02-15T07:55:21;12.60;99.90
5711;DHT22;61291;52.524;13.422;2024-02-15T07:57:51;12.70;99.90
5711;DHT22;61291;52.524;13.422;2024-02-15T08:00:17;12.90;99.90
5711;DHT22;61291;52.524;13.422;2024-02-15T08:02:45;13.00;99.90
5711;DHT22;61291;52.524;13.422;2024-02-15T08:05:12;13.10;99.90
5711;DHT22;61291;52.524;13.422;2024-02-15T08:07:41;13.30;99.90
5711;DHT22;61291;52.524;13.422;2024-02-15T08:10:08;13.50;99.90
5711;DHT22;61291;52.524;13.422;2024-02-15T08:12:47;13.90;99.90
5711;DHT22;61291;52.524;13.422;2024-02-15T08:15:17;14.00;99.90
5711;DHT22;61291;52.524;13.422;2024-02-15T08:17:44;14.00;99.90
5711;DHT22;61291;52.524;13.422;2024-02-15T08:20:13;13.90;99.90
5711;DHT22;61291;52.524;13.422;2024-02-15T08:22:39;13.90;99.90
5711;DHT22;61291;52.524;13.422;2024-02-15T08:25:10;14.00;99.90
5711;DHT22;61291;52.524;13.422;2024-02-15T08:27:40;14.10;99.90
5711;DHT22;61291;52.524;13.422;2024-02-15T08:30:09;14.00;99.90
5711;DHT22;61291;52.524;13.422;2024-02-15T08:32:35;13.90;99.90
5711;DHT22;61291;52.524;13.422;2024-02-15T08:35:00;14.00;99.90
5711;DHT22;61291;52.524;13.422;2024-02-15T08:37:26;13.90;99.90
5711;DHT22;61291;52.524;13.422;2024-02-15T08:39:51;13.90;99.90
5711;DHT22;61291;52.524;13.422;2024-02-15T08:42:18;13.90;99.90
5711;DHT22;61291;52.524;13.422;2024-02-15T08:44:47;13.90;99.90
5711;DHT22;61291;52.524;13.422;2024-02-15T08:47:13;13.80;99.90
5711;DHT22;61291;52.524;13.422;2024-02-15T08:49:39;13.80;99.90
5711;DHT22;61291;52.524;13.422;2024-02-15T08:52:05;13.90;99.90
5711;DHT22;61291;52.524;13.422;2024-02-15T08:54:33;13.90;99.90
5711;DHT22;61291;52.524;13.422;2024-02-15T08:56:58;14.00;99.90
5711;DHT22;61291;52.524;13.422;2024-02-15T08:59:24;14.00;99.90
5711;DHT22;61291;52.524;13.422;2024-02-15T09:01:50;14.00;99.90
5711;DHT22;61291;52.524;13.422;2024-02-15T09:04:16;14.10;99.90
5711;DHT22;61291;52.524;13.422;2024-02-15T09:06:42;14.20;99.90
5711;DHT22;61291;52.524;13.422;2024-02-15T09:09:08;14.20;99.90
5711;DHT22;61291;52.524;13.422;2024-02-15T09:11:33;14.20;99.90
5711;DHT22;61291;52.524;13.422;2024-02-15T09:14:00;14.40;99.90
5711;DHT22;61291;52.524;13.422;2024-02-15T09:16:25;14.60;99.90
5711;DHT22;61291;52.524;13.422;2024-02-15T09:18:51;14.80;99.90
5711;DHT22;61291;52.524;13.422;2024-02-15T09:21:16;15.10;99.90
5711;DHT22;61291;52.524;13.422;2024-02-15T09:23:41;15.20;99.90
5711;DHT22;61291;52.524;13.422;2024-02-15T09:26:07;15.40;99.90
5711;DHT22;61291;52.524;13.422;2024-02-15T09:28:35;15.60;99.90
5711;DHT22;61291;52.524;13.422;2024-02-15T09:31:01;15.60;99.90
5711;DHT22;61291;52.524;13.422;2024-02-15T09:33:27;15.60;99.90
5711;DHT22;61291;52.524;13.422;2024-02-15T09:35:52;15.40;99.90
5711;DHT22;61291;52.524;13.422;2024-02-15T09:38:20;15.10;99.90
5711;DHT22;61291;52.524;13.422;2024-02-15T09:40:48;14.90;99.90
5711;DHT22;61291;52.524;13.422;2024-02-15T09:43:14;14.80;99.90
5711;DHT22;61291;52.524;13.422;2024-02-15T09:45:40;14.80;99.90
5711;DHT22;61291;52.524;13.422;2024-02-15T09:48:06;14.60;99.90
5711;DHT22;61291;52.524;13.422;2024-02-15T09:50:34;14.50;99.90
5711;DHT22;61291;52.524;13.422;2024-02-15T09:53:00;14.40;99.90
5711;DHT22;61291;52.524;13.422;2024-02-15T09:55:29;14.30;99.90
5711;DHT22;61291;52.524;13.422;2024-02-15T09:57:55;14.40;99.90
5711;DHT22;61291;52.524;13.422;2024-02-15T10:00:20;14.50;99.90
5711;DHT22;61291;52.524;13.422;2024-02-15T10:02:53;14.50;99.90
5711;DHT22;61291;52.524;13.422;2024-02-15T10:05:18;14.50;99.90
5711;DHT22;61291;52.524;13.422;2024-02-15T10:07:45;14.50;99.90
5711;DHT22;61291;52.524;13.422;2024-02-15T10:12:45;14.80;99.90
5711;DHT22;61291;52.524;13.422;2024-02-15T10:15:27;14.80;99.90
5711;DHT22;61291;52.524;13.422;2024-02-15T10:17:54;15.00;99.90
5711;DHT22;61291;52.524;13.422;2024-02-15T10:20:21;15.20;99.90
5711;DHT22;61291;52.524;13.422;2024-02-15T10:22:46;15.40;99.90
5711;DHT22;61291;52.524;13.422;2024-02-15T10:25:12;15.50;99.90
5711;DHT22;61291;52.524;13.422;2024-02-15T10:27:40;15.60;99.90
5711;DHT22;61291;52.524;13.422;2024-02-15T10:30:19;15.70;99.90
5711;DHT22;61291;52.524;13.422;2024-02-15T10:32:45;15.80;99.90
5711;DHT22;61291;52.524;13.422;2024-02-15T10:35:19;15.80;99.90
5711;DHT22;61291;52.524;13.422;2024-02-15T10:37:44;16.00;99.90
5711;DHT22;61291;52.524;13.422;2024-02-15T10:40:10;16.10;99.90
5711;DHT22;61291;52.524;13.422;2024-02-15T10:42:40;16.30;99.90
5711;DHT22;61291;52.524;13.422;2024-02-15T10:45:08;16.40;99.90
5711;DHT22;61291;52.524;13.422;2024-02-15T10:47:37;16.60;99.90
5711;DHT22;61291;52.524;13.422;2024-02-15T10:50:04;16.80;99.90
5711;DHT22;61291;52.524;13.422;2024-02-15T10:52:31;16.80;99.90
5711;DHT22;61291;52.524;13.422;2024-02-15T10:55:03;16.90;99.90
5711;DHT22;61291;52.524;13.422;2024-02-15T10:57:34;17.00;99.90
5711;DHT22;61291;52.524;13.422;2024-02-15T11:00:02;17.20;99.90
5711;DHT22;61291;52.524;13.422;2024-02-15T11:02:42;17.40;99.90
5711;DHT22;61291;52.524;13.422;2024-02-15T11:05:10;17.70;99.90
5711;DHT22;61291;52.524;13.422;2024-02-15T11:07:39;17.80;99.90
5711;DHT22;61291;52.524;13.422;2024-02-15T11:10:07;17.80;99.90
5711;DHT22;61291;52.524;13.422;2024-02-15T11:12:36;17.90;99.90
5711;DHT22;61291;52.524;13.422;2024-02-15T11:15:02;18.00;99.90
5711;DHT22;61291;52.524;13.422;2024-02-15T11:20:10;18.20;99.90
5711;DHT22;61291;52.524;13.422;2024-02-15T11:22:56;18.40;99.90
5711;DHT22;61291;52.524;13.422;2024-02-15T11:25:32;18.70;99.90
5711;DHT22;61291;52.524;13.422;2024-02-15T11:30:47;18.30;99.90
5711;DHT22;61291;52.524;13.422;2024-02-15T11:33:36;18.10;99.90
5711;DHT22;61291;52.524;13.422;2024-02-15T11:36:12;18.00;99.90
5711;DHT22;61291;52.524;13.422;2024-02-15T11:38:39;17.70;99.90
5711;DHT22;61291;52.524;13.422;2024-02-15T11:41:09;17.70;99.90
5711;DHT22;61291;52.524;13.422;2024-02-15T11:43:49;17.50;99.90
5711;DHT22;61291;52.524;13.422;2024-02-15T11:46:15;17.40;99.90
5711;DHT22;61291;52.524;13.422;2024-02-15T11:48:53;17.30;99.90
5711;DHT22;61291;52.524;13.422;2024-02-15T11:51:35;17.10;99.90
5711;DHT22;61291;52.524;13.422;2024-02-15T11:54:11;16.70;99.90
5711;DHT22;61291;52.524;13.422;2024-02-15T11:56:53;16.50;99.90
5711;DHT22;61291;52.524;13.422;2024-02-15T11:59:42;16.60;99.90
5711;DHT22;61291;52.524;13.422;2024-02-15T12:02:19;16.50;99.90
5711;DHT22;61291;52.524;13.422;2024-02-15T12:05:05;16.40;99.90
5711;DHT22;61291;52.524;13.422;2024-02-15T12:07:49;16.40;99.90
5711;DHT22;61291;52.524;13.422;2024-02-15T12:10:33;16.30;99.90
5711;DHT22;61291;52.524;13.422;2024-02-15T12:13:19;16.10;99.90
5711;DHT22;61291;52.524;13.422;2024-02-15T12:16:03;16.10;99.90
5711;DHT22;61291;52.524;13.422;2024-02-15T12:18:48;16.10;99.90
5711;DHT22;61291;52.524;13.422;2024-02-15T12:21:21;16.00;99.90
5711;DHT22;61291;52.524;13.422;2024-02-15T12:23:48;16.00;99.90
5711;DHT22;61291;52.524;13.422;2024-02-15T12:26:18;16.00;99.90
5711;DHT22;61291;52.524;13.422;2024-02-15T12:28:44;15.90;99.90
5711;DHT22;61291;52.524;13.422;2024-02-15T12:31:09;15.90;99.90
5711;DHT22;61291;52.524;13.422;2024-02-15T12:33:38;16.10;99.90
5711;DHT22;61291;52.524;13.422;2024-02-15T12:36:04;16.40;99.90
5711;DHT22;61291;52.524;13.422;2024-02-15T12:38:34;16.80;99.90
5711;DHT22;61291;52.524;13.422;2024-02-15T12:41:03;17.20;99.90
5711;DHT22;61291;52.524;13.422;2024-02-15T12:43:28;17.60;99.90
5711;DHT22;61291;52.524;13.422;2024-02-15T12:45:54;17.90;99.90
5711;DHT22;61291;52.524;13.422;2024-02-15T12:48:22;18.20;99.90
5711;DHT22;61291;52.524;13.422;2024-02-15T12:50:47;18.40;99.90
5711;DHT22;61291;52.524;13.422;2024-02-15T12:53:13;18.60;99.90
5711;DHT22;61291;52.524;13.422;2024-02-15T12:55:52;18.50;99.90
5711;DHT22;61291;52.524;13.422;2024-02-15T12:58:20;18.30;99.90
5711;DHT22;61291;52.524;13.422;2024-02-15T13:00:45;18.30;99.90
5711;DHT22;61291;52.524;13.422;2024-02-15T13:03:11;18.30;99.90
5711;DHT22;61291;52.524;13.422;2024-02-15T13:05:39;18.30;99.90
5711;DHT22;61291;52.524;13.422;2024-02-15T13:08:05;18.30;99.90
5711;DHT22;61291;52.524;13.422;2024-02-15T13:10:35;18.40;99.90
5711;DHT22;61291;52.524;13.422;2024-02-15T13:13:01;18.40;99.90
5711;DHT22;61291;52.524;13.422;2024-02-15T13:15:27;18.40;99.90
5711;DHT22;61291;52.524;13.422;2024-02-15T13:17:53;18.50;99.90
5711;DHT22;61291;52.524;13.422;2024-02-15T13:20:21;18.30;99.90
5711;DHT22;61291;52.524;13.422;2024-02-15T13:23:01;18.20;99.90
5711;DHT22;61291;52.524;13.422;2024-02-15T13:25:45;18.10;99.90
5711;DHT22;61291;52.524;13.422;2024-02-15T13:28:11;18.00;99.90
5711;DHT22;61291;52.524;13.422;2024-02-15T13:30:38;17.80;99.90
5711;DHT22;61291;52.524;13.422;2024-02-15T13:33:04;17.60;99.90
5711;DHT22;61291;52.524;13.422;2024-02-15T13:35:29;17.40;99.90
5711;DHT22;61291;52.524;13.422;2024-02-15T13:37:56;17.50;99.90
5711;DHT22;61291;52.524;13.422;2024-02-15T13:40:26;17.60;99.90
5711;DHT22;61291;52.524;13.422;2024-02-15T13:42:54;17.60;99.90
5711;DHT22;61291;52.524;13.422;2024-02-15T13:45:39;17.60;99.90
5711;DHT22;61291;52.524;13.422;2024-02-15T13:48:05;17.70;99.90
5711;DHT22;61291;52.524;13.422;2024-02-15T13:50:32;17.50;99.90
5711;DHT22;61291;52.524;13.422;2024-02-15T13:52:58;17.30;99.90
5711;DHT22;61291;52.524;13.422;2024-02-15T13:55:24;17.20;99.90
5711;DHT22;61291;52.524;13.422;2024-02-15T13:57:51;17.10;99.90
5711;DHT22;61291;52.524;13.422;2024-02-15T14:00:18;17.00;99.90
5711;DHT22;61291;52.524;13.422;2024-02-15T14:02:54;17.00;99.90
5711;DHT22;61291;52.524;13.422;2024-02-15T14:05:21;16.90;99.90
5711;DHT22;61291;52.524;13.422;2024-02-15T14:07:58;16.90;99.90
5711;DHT22;61291;52.524;13.422;2024-02-15T14:10:25;16.80;99.90
5711;DHT22;61291;52.524;13.422;2024-02-15T14:12:53;16.80;99.90
5711;DHT22;61291;52.524;13.422;2024-02-15T14:15:23;16.70;99.90
5711;DHT22;61291;52.524;13.422;2024-02-15T14:17:49;16.80;99.90
5711;DHT22;61291;52.524;13.422;2024-02-15T14:20:14;16.90;99.90
5711;DHT22;61291;52.524;13.422;2024-02-15T14:22:43;16.90;99.90
5711;DHT22;61291;52.524;13.422;2024-02-15T14:25:09;16.80;99.90
5711;DHT22;61291;52.524;13.422;2024-02-15T14:27:34;16.60;99.90
5711;DHT22;61291;52.524;13.422;2024-02-15T14:30:00;16.50;99.90
5711;DHT22;61291;52.524;13.422;2024-02-15T14:32:51;16.30;99.90
5711;DHT22;61291;52.524;13.422;2024-02-15T14:35:34;16.20;99.90
5711;DHT22;61291;52.524;13.422;2024-02-15T14:38:02;16.00;99.90
5711;DHT22;61291;52.524;13.422;2024-02-15T14:40:31;15.90;99.90
5711;DHT22;61291;52.524;13.422;2024-02-15T14:42:56;15.80;99.90
5711;DHT22;61291;52.524;13.422;2024-02-15T14:45:22;15.80;99.90
5711;DHT22;61291;52.524;13.422;2024-02-15T14:47:47;15.80;99.90
5711;DHT22;61291;52.524;13.422;2024-02-15T14:50:13;15.70;99.90
5711;DHT22;61291;52.524;13.422;2024-02-15T14:52:39;15.70;99.90
5711;DHT22;61291;52.524;13.422;2024-02-15T14:55:05;15.60;99.90
5711;DHT22;61291;52.524;13.422;2024-02-15T14:57:36;15.70;99.90
5711;DHT22;61291;52.524;13.422;2024-02-15T15:00:06;15.70;99.90
5711;DHT22;61291;52.524;13.422;2024-02-15T15:02:40;15.70;99.90
5711;DHT22;61291;52.524;13.422;2024-02-15T15:05:07;15.60;99.90
5711;DHT22;61291;52.524;13.422;2024-02-15T15:07:51;15.60;99.90
5711;DHT22;61291;52.524;13.422;2024-02-15T15:10:35;15.50;99.90
5711;DHT22;61291;52.524;13.422;2024-02-15T15:13:19;15.40;99.90
5711;DHT22;61291;52.524;13.422;2024-02-15T15:15:45;15.30;99.90
5711;DHT22;61291;52.524;13.422;2024-02-15T15:18:12;15.20;99.90
5711;DHT22;61291;52.524;13.422;2024-02-15T15:20:37;15.10;99.90
5711;DHT22;61291;52.524;13.422;2024-02-15T15:23:04;15.00;99.90
5711;DHT22;61291;52.524;13.422;2024-02-15T15:25:34;15.00;99.90
5711;DHT22;61291;52.524;13.422;2024-02-15T15:28:00;15.00;99.90
5711;DHT22;61291;52.524;13.422;2024-02-15T15:30:26;14.90;99.90
5711;DHT22;61291;52.524;13.422;2024-02-15T15:32:51;14.80;99.90
5711;DHT22;61291;52.524;13.422;2024-02-15T15:35:18;14.80;99.90
5711;DHT22;61291;52.524;13.422;2024-02-15T15:37:46;14.70;99.90
5711;DHT22;61291;52.524;13.422;2024-02-15T15:40:12;14.70;99.90
5711;DHT22;61291;52.524;13.422;2024-02-15T15:42:39;14.70;99.90
5711;DHT22;61291;52.524;13.422;2024-02-15T15:45:05;14.60;99.90